createdAt,value
2018-05-13T00:00:35.494Z,65.70
2018-05-13T00:03:04.044Z,66.00
2018-05-13T00:05:33.004Z,66.10
2018-05-13T00:08:01.229Z,66.10
2018-05-13T00:10:29.446Z,65.70
2018-05-13T00:12:57.755Z,65.90
2018-05-13T00:15:26.743Z,66.10
2018-05-13T00:17:55.740Z,66.10
2018-05-13T00:20:24.710Z,65.90
2018-05-13T00:22:52.921Z,65.90
2018-05-13T00:25:21.132Z,66.10
2018-05-13T00:27:49.352Z,66.50
2018-05-13T00:30:18.346Z,67.10
2018-05-13T00:32:47.323Z,66.70
2018-05-13T00:35:16.589Z,66.70
2018-05-13T00:37:44.789Z,66.10
2018-05-13T00:40:13.355Z,67.00
2018-05-13T00:42:41.576Z,69.20
2018-05-13T00:45:09.820Z,70.70
2018-05-13T00:47:38.024Z,72.50
2018-05-13T00:50:06.602Z,72.70
2018-05-13T00:52:35.581Z,75.30
2018-05-13T00:55:03.795Z,75.30
2018-05-13T00:57:32.016Z,75.30
2018-05-13T01:00:00.253Z,75.60
2018-05-13T01:02:28.497Z,75.50
2018-05-13T01:04:56.735Z,74.50
2018-05-13T01:07:24.960Z,76.30
2018-05-13T01:09:53.193Z,76.70
2018-05-13T01:12:21.424Z,76.50
2018-05-13T01:14:49.672Z,75.40
2018-05-13T01:17:17.905Z,76.00
2018-05-13T01:19:46.136Z,76.10
2018-05-13T01:22:14.351Z,76.30
2018-05-13T01:24:42.573Z,76.40
2018-05-13T01:27:10.797Z,76.00
2018-05-13T01:29:39.027Z,76.00
2018-05-13T01:32:07.242Z,75.10
2018-05-13T01:34:35.472Z,75.20
2018-05-13T01:37:03.751Z,74.80
2018-05-13T01:39:32.256Z,75.20
2018-05-13T01:42:00.458Z,75.00
2018-05-13T01:44:28.689Z,75.60
2018-05-13T01:46:56.915Z,76.10
2018-05-13T01:49:25.157Z,75.00
2018-05-13T01:51:53.382Z,75.40
2018-05-13T01:54:22.415Z,75.50
2018-05-13T01:56:50.635Z,75.40
2018-05-13T01:59:18.854Z,74.60
2018-05-13T02:01:47.069Z,76.60
2018-05-13T02:04:15.388Z,77.10
2018-05-13T02:06:43.600Z,76.70
2018-05-13T02:09:11.852Z,76.70
2018-05-13T02:11:40.102Z,79.60
2018-05-13T02:14:09.083Z,85.00
2018-05-13T02:16:37.383Z,84.90
2018-05-13T02:19:05.591Z,84.00
2018-05-13T02:21:33.840Z,82.80
2018-05-13T02:24:02.054Z,82.90
2018-05-13T02:26:30.289Z,83.20
2018-05-13T02:28:58.491Z,82.10
2018-05-13T02:31:26.742Z,82.30
2018-05-13T02:33:54.968Z,81.30
2018-05-13T02:36:23.281Z,81.50
2018-05-13T02:38:51.499Z,82.20
2018-05-13T02:41:19.743Z,82.50
2018-05-13T02:43:47.960Z,82.80
2018-05-13T02:46:16.398Z,83.20
2018-05-13T02:48:44.615Z,83.50
2018-05-13T02:51:12.845Z,84.00
2018-05-13T02:53:41.247Z,84.70
2018-05-13T02:56:09.513Z,84.30
2018-05-13T02:58:37.728Z,83.40
2018-05-13T03:01:05.967Z,82.30
2018-05-13T03:03:34.432Z,82.30
2018-05-13T03:06:02.656Z,80.80
2018-05-13T03:08:30.899Z,81.20
2018-05-13T03:10:59.152Z,80.50
2018-05-13T03:13:27.381Z,80.70
2018-05-13T03:15:55.698Z,81.40
2018-05-13T03:18:23.912Z,81.70
2018-05-13T03:20:52.830Z,81.50
2018-05-13T03:23:21.118Z,81.50
2018-05-13T03:25:49.410Z,81.40
2018-05-13T03:28:17.620Z,80.50
2018-05-13T03:30:45.861Z,80.80
2018-05-13T03:33:14.089Z,81.00
2018-05-13T03:35:42.304Z,81.80
2018-05-13T03:38:10.555Z,82.70
2018-05-13T03:40:38.876Z,82.60
2018-05-13T03:43:08.020Z,82.50
2018-05-13T03:45:37.047Z,81.00
2018-05-13T03:48:05.257Z,81.00
2018-05-13T03:50:33.511Z,80.80
2018-05-13T03:53:01.730Z,80.60
2018-05-13T03:55:29.964Z,81.00
2018-05-13T03:57:58.225Z,81.70
2018-05-13T04:00:26.445Z,81.80
2018-05-13T04:02:54.789Z,81.60
2018-05-13T04:05:23.008Z,82.00
2018-05-13T04:11:30.878Z,82.80
2018-05-13T04:14:11.008Z,82.80
2018-05-13T04:16:40.008Z,82.00
2018-05-13T04:19:09.077Z,81.80
2018-05-13T04:21:37.279Z,81.70
2018-05-13T04:24:06.280Z,81.70
2018-05-13T04:26:35.338Z,81.60
2018-05-13T04:29:03.484Z,81.50
2018-05-13T04:31:31.704Z,82.10
2018-05-13T04:34:00.704Z,81.50
2018-05-13T04:36:28.952Z,81.40
2018-05-13T04:38:57.156Z,80.60
2018-05-13T04:41:26.162Z,80.90
2018-05-13T04:43:54.368Z,80.90
2018-05-13T04:46:22.606Z,81.10
2018-05-13T04:48:51.588Z,79.90
2018-05-13T04:51:20.590Z,80.00
2018-05-13T04:53:48.791Z,80.00
2018-05-13T04:56:17.053Z,79.90
2018-05-13T04:58:45.256Z,80.00
2018-05-13T05:01:13.534Z,79.00
2018-05-13T05:03:41.758Z,79.20
2018-05-13T05:06:10.731Z,78.90
2018-05-13T05:08:39.728Z,78.30
2018-05-13T05:11:08.695Z,78.70
2018-05-13T05:13:36.914Z,78.70
2018-05-13T05:16:05.739Z,78.60
2018-05-13T05:18:33.984Z,78.70
2018-05-13T05:21:02.215Z,78.20
2018-05-13T05:23:30.729Z,78.30
2018-05-13T05:25:59.754Z,79.30
2018-05-13T05:28:28.010Z,79.20
2018-05-13T05:30:56.208Z,81.10
2018-05-13T05:33:24.433Z,82.40
2018-05-13T05:35:53.412Z,81.50
2018-05-13T05:38:21.723Z,81.50
2018-05-13T05:40:49.992Z,81.00
2018-05-13T05:43:18.976Z,81.40
2018-05-13T05:45:47.144Z,81.90
2018-05-13T05:48:16.149Z,81.30
2018-05-13T05:50:44.364Z,81.20
2018-05-13T05:53:12.588Z,81.70
2018-05-13T05:55:41.565Z,83.00
2018-05-13T05:58:09.856Z,83.00
2018-05-13T06:00:38.866Z,82.90
2018-05-13T06:03:07.367Z,82.90
2018-05-13T06:05:35.553Z,82.90
2018-05-13T06:08:03.789Z,82.30
2018-05-13T06:10:32.002Z,83.60
2018-05-13T06:13:00.234Z,83.90
2018-05-13T06:15:28.468Z,83.80
2018-05-13T06:17:56.857Z,83.10
2018-05-13T06:20:25.063Z,81.10
2018-05-13T06:22:53.294Z,79.90
2018-05-13T06:25:21.788Z,80.20
2018-05-13T06:27:50.084Z,79.30
2018-05-13T06:30:19.072Z,79.20
2018-05-13T06:32:48.090Z,79.40
2018-05-13T06:35:16.320Z,79.20
2018-05-13T06:37:44.537Z,79.20
2018-05-13T06:40:12.952Z,78.70
2018-05-13T06:42:41.151Z,79.90
2018-05-13T06:45:09.495Z,80.10
2018-05-13T06:47:37.666Z,80.00
2018-05-13T06:50:06.203Z,80.00
2018-05-13T06:52:34.483Z,80.40
2018-05-13T06:55:03.546Z,80.70
2018-05-13T06:57:31.764Z,80.70
2018-05-13T06:59:59.992Z,79.50
2018-05-13T07:02:28.215Z,79.60
2018-05-13T07:04:56.460Z,78.70
2018-05-13T07:07:25.437Z,78.50
2018-05-13T07:09:53.660Z,78.40
2018-05-13T07:12:21.887Z,78.60
2018-05-13T07:14:50.098Z,78.40
2018-05-13T07:17:18.328Z,78.60
2018-05-13T07:19:46.536Z,79.00
2018-05-13T07:22:15.511Z,79.40
2018-05-13T07:24:43.747Z,79.40
2018-05-13T07:27:11.944Z,79.40
2018-05-13T07:29:40.202Z,80.20
2018-05-13T07:32:08.389Z,80.40
2018-05-13T07:34:36.716Z,80.40
2018-05-13T07:37:04.920Z,80.20
2018-05-13T07:39:33.153Z,80.60
2018-05-13T07:42:03.118Z,79.50
2018-05-13T07:44:31.449Z,79.40
2018-05-13T07:46:59.692Z,79.40
2018-05-13T07:49:27.908Z,79.30
2018-05-13T07:51:56.259Z,80.00
2018-05-13T07:54:24.654Z,80.00
2018-05-13T07:56:52.856Z,79.90
2018-05-13T07:59:21.071Z,80.00
2018-05-13T08:01:49.379Z,79.80
2018-05-13T08:04:17.592Z,79.20
2018-05-13T08:06:45.814Z,79.40
2018-05-13T08:09:14.784Z,78.70
2018-05-13T08:11:43.009Z,78.50
2018-05-13T08:14:11.305Z,78.50
2018-05-13T08:16:39.447Z,78.40
2018-05-13T08:19:07.689Z,78.70
2018-05-13T08:21:35.998Z,79.50
2018-05-13T08:24:04.252Z,79.40
2018-05-13T08:26:32.444Z,78.80
2018-05-13T08:29:00.664Z,79.10
2018-05-13T08:31:28.894Z,79.60
2018-05-13T08:33:57.113Z,79.40
2018-05-13T08:36:25.328Z,79.70
2018-05-13T08:38:54.304Z,79.40
2018-05-13T08:41:22.531Z,79.40
2018-05-13T08:43:50.738Z,78.50
2018-05-13T08:46:19.064Z,78.50
2018-05-13T08:48:49.724Z,77.10
2018-05-13T08:51:17.984Z,76.60
2018-05-13T08:53:46.211Z,76.00
2018-05-13T08:56:14.420Z,75.30
2018-05-13T08:58:42.630Z,75.00
2018-05-13T09:01:10.852Z,74.30
2018-05-13T09:03:39.833Z,74.20
2018-05-13T09:06:08.835Z,74.60
2018-05-13T09:08:37.087Z,74.60
2018-05-13T09:11:05.289Z,74.70
2018-05-13T09:13:33.497Z,75.10
2018-05-13T09:16:01.851Z,74.00
2018-05-13T09:18:30.028Z,73.40
2018-05-13T09:20:58.329Z,72.90
2018-05-13T09:23:26.466Z,73.00
2018-05-13T09:25:55.458Z,73.20
2018-05-13T09:28:30.340Z,73.30
2018-05-13T09:30:58.664Z,73.20
2018-05-13T09:33:27.640Z,71.50
2018-05-13T09:35:55.924Z,71.40
2018-05-13T09:38:24.912Z,71.20
2018-05-13T09:40:53.130Z,71.10
2018-05-13T09:43:21.380Z,70.30
2018-05-13T09:45:49.618Z,70.00
2018-05-13T09:48:17.824Z,69.50
2018-05-13T09:50:46.812Z,68.60
2018-05-13T09:53:15.792Z,68.70
2018-05-13T09:55:44.795Z,69.60
2018-05-13T09:58:13.756Z,68.70
2018-05-13T10:00:41.981Z,68.60
2018-05-13T10:03:10.419Z,67.80
2018-05-13T10:05:38.656Z,67.10
2018-05-13T10:08:06.904Z,66.50
2018-05-13T10:10:35.880Z,65.40
2018-05-13T10:13:04.860Z,64.60
2018-05-13T10:15:33.064Z,64.40
2018-05-13T10:18:01.499Z,63.20
2018-05-13T10:20:29.708Z,63.50
2018-05-13T10:22:58.696Z,64.70
2018-05-13T10:25:27.698Z,64.00
2018-05-13T10:27:56.695Z,63.40
2018-05-13T10:30:24.913Z,63.30
2018-05-13T10:32:53.139Z,64.30
2018-05-13T10:35:21.474Z,64.50
2018-05-13T10:37:49.670Z,64.30
2018-05-13T10:40:18.666Z,65.10
2018-05-13T10:42:47.658Z,65.40
2018-05-13T10:45:16.632Z,65.00
2018-05-13T10:47:44.864Z,65.00
2018-05-13T10:50:13.282Z,65.30
2018-05-13T10:52:41.620Z,66.00
2018-05-13T10:55:09.821Z,66.30
2018-05-13T10:57:38.093Z,67.00
2018-05-13T11:00:06.622Z,68.10
2018-05-13T11:02:34.905Z,68.00
2018-05-13T11:05:03.105Z,66.30
2018-05-13T11:07:31.436Z,66.40
2018-05-13T11:09:59.636Z,67.30
2018-05-13T11:12:27.865Z,69.50
2018-05-13T11:14:56.075Z,69.40
2018-05-13T11:17:25.069Z,70.80
2018-05-13T11:19:54.045Z,71.10
2018-05-13T11:22:23.041Z,72.10
2018-05-13T11:24:52.018Z,72.40
2018-05-13T11:27:20.420Z,72.30
2018-05-13T11:29:49.403Z,73.10
2018-05-13T11:32:18.419Z,73.30
2018-05-13T11:34:46.640Z,73.30
2018-05-13T11:37:14.920Z,73.20
2018-05-13T11:39:44.688Z,73.80
2018-05-13T11:42:12.894Z,73.80
2018-05-13T11:44:41.115Z,74.00
2018-05-13T11:47:10.108Z,74.40
2018-05-13T11:49:38.328Z,74.40
2018-05-13T11:52:06.546Z,73.40
2018-05-13T11:54:35.580Z,73.40
2018-05-13T11:57:03.800Z,73.50
2018-05-13T11:59:32.004Z,74.00
2018-05-13T12:02:00.285Z,73.40
2018-05-13T12:04:28.501Z,73.10
2018-05-13T12:06:56.708Z,72.90
2018-05-13T12:09:25.725Z,72.50
2018-05-13T12:11:54.705Z,72.20
2018-05-13T12:14:22.912Z,71.80
2018-05-13T12:16:51.116Z,71.40
2018-05-13T12:19:19.337Z,71.50
2018-05-13T12:21:47.597Z,72.20
2018-05-13T12:24:15.881Z,73.10
2018-05-13T12:26:44.840Z,73.30
2018-05-13T12:29:13.058Z,73.20
2018-05-13T12:31:41.265Z,72.90
2018-05-13T12:34:09.505Z,72.00
2018-05-13T12:36:37.703Z,71.70
2018-05-13T12:39:05.928Z,71.90
2018-05-13T12:41:34.921Z,72.20
2018-05-13T12:44:03.136Z,72.20
2018-05-13T12:46:31.345Z,72.10
2018-05-13T12:48:59.585Z,72.20
2018-05-13T12:51:27.791Z,72.30
2018-05-13T12:53:56.016Z,72.80
2018-05-13T12:56:24.294Z,72.90
2018-05-13T12:58:52.668Z,73.10
2018-05-13T13:01:21.009Z,73.50
2018-05-13T13:03:49.345Z,73.20
2018-05-13T13:06:17.453Z,73.50
2018-05-13T13:08:45.768Z,73.50
2018-05-13T13:11:14.736Z,73.40
2018-05-13T13:13:43.742Z,73.20
2018-05-13T13:16:12.730Z,73.40
2018-05-13T13:18:41.741Z,73.10
2018-05-13T13:21:09.952Z,73.00
2018-05-13T13:23:38.347Z,73.10
2018-05-13T13:26:06.559Z,73.50
2018-05-13T13:28:35.562Z,74.10
2018-05-13T13:31:03.804Z,73.30
2018-05-13T13:33:32.027Z,73.20
2018-05-13T13:36:00.271Z,72.90
2018-05-13T13:38:28.491Z,72.70
2018-05-13T13:40:56.723Z,72.40
2018-05-13T13:43:24.942Z,72.10
2018-05-13T13:45:53.981Z,71.90
2018-05-13T13:48:22.986Z,71.20
2018-05-13T13:50:51.217Z,71.20
2018-05-13T13:53:19.405Z,71.40
2018-05-13T13:55:48.856Z,71.50
2018-05-13T13:58:17.074Z,71.70
2018-05-13T14:00:45.305Z,71.50
2018-05-13T14:03:13.517Z,71.00
2018-05-13T14:05:41.751Z,71.70
2018-05-13T14:08:10.022Z,72.30
2018-05-13T14:10:38.268Z,73.00
2018-05-13T14:13:07.284Z,73.00
2018-05-13T14:15:35.523Z,73.00
2018-05-13T14:18:03.834Z,72.30
2018-05-13T14:20:32.209Z,72.30
2018-05-13T14:23:00.366Z,72.60
2018-05-13T14:25:28.568Z,73.00
2018-05-13T14:27:56.886Z,73.50
2018-05-13T14:30:25.111Z,73.20
2018-05-13T14:32:54.155Z,73.10
2018-05-13T14:35:23.085Z,73.20
2018-05-13T14:37:51.288Z,73.20
2018-05-13T14:40:19.528Z,73.30
2018-05-13T14:42:48.508Z,73.40
2018-05-13T14:45:17.582Z,73.20
2018-05-13T14:47:46.511Z,73.30
2018-05-13T14:50:14.755Z,73.30
2018-05-13T14:52:42.970Z,72.90
2018-05-13T14:55:11.201Z,73.70
2018-05-13T14:57:40.946Z,72.90
2018-05-13T15:00:09.691Z,72.90
2018-05-13T15:02:37.943Z,72.60
2018-05-13T15:05:06.239Z,73.60
2018-05-13T15:07:34.421Z,73.10
2018-05-13T15:10:03.020Z,73.00
2018-05-13T15:12:31.236Z,73.00
2018-05-13T15:14:59.855Z,73.20
2018-05-13T15:17:28.543Z,73.00
2018-05-13T15:19:57.123Z,72.90
2018-05-13T15:22:32.504Z,72.90
2018-05-13T15:25:00.986Z,73.30
2018-05-13T15:27:30.175Z,73.80
2018-05-13T15:29:59.149Z,73.20
2018-05-13T15:32:27.373Z,73.20
2018-05-13T15:34:55.577Z,73.20
2018-05-13T15:37:23.789Z,73.10
2018-05-13T15:39:52.782Z,73.90
2018-05-13T15:42:21.773Z,73.40
2018-05-13T15:44:50.741Z,73.40
2018-05-13T15:47:18.975Z,73.20
2018-05-13T15:49:47.185Z,73.00
2018-05-13T15:52:15.396Z,72.80
2018-05-13T15:54:44.392Z,72.70
2018-05-13T15:57:13.366Z,73.10
2018-05-13T15:59:42.339Z,72.80
2018-05-13T16:02:11.424Z,72.70
2018-05-13T16:04:39.623Z,71.70
2018-05-13T16:07:08.616Z,71.30
2018-05-13T16:09:37.608Z,72.30
2018-05-13T16:12:05.887Z,71.40
2018-05-13T16:14:34.038Z,71.00
2018-05-13T16:17:02.356Z,70.10
2018-05-13T16:19:30.625Z,70.60
2018-05-13T16:21:58.900Z,71.50
2018-05-13T16:24:27.218Z,72.10
2018-05-13T16:26:55.442Z,72.60
2018-05-13T16:29:24.412Z,70.20
2018-05-13T16:31:52.864Z,70.20
2018-05-13T16:34:21.093Z,70.10
2018-05-13T16:36:50.084Z,71.60
2018-05-13T16:39:19.060Z,72.30
2018-05-13T16:41:47.285Z,72.30
2018-05-13T16:44:15.488Z,71.70
2018-05-13T16:46:43.716Z,71.60
2018-05-13T16:49:11.990Z,71.60
2018-05-13T16:51:40.215Z,71.80
2018-05-13T16:54:08.498Z,71.90
2018-05-13T16:56:36.773Z,72.30
2018-05-13T16:59:05.071Z,72.30
2018-05-13T17:01:33.292Z,72.70
2018-05-13T17:04:01.551Z,72.40
2018-05-13T17:06:29.773Z,72.60
2018-05-13T17:08:58.013Z,72.90
2018-05-13T17:11:26.216Z,73.70
2018-05-13T17:13:54.441Z,74.00
2018-05-13T17:16:22.664Z,74.30
2018-05-13T17:18:50.872Z,74.20
2018-05-13T17:21:20.842Z,74.00
2018-05-13T17:23:49.194Z,73.90
2018-05-13T17:26:17.414Z,74.30
2018-05-13T17:28:45.645Z,74.30
2018-05-13T17:31:13.865Z,74.40
2018-05-13T17:33:42.097Z,74.50
2018-05-13T17:36:10.423Z,74.50
2018-05-13T17:38:38.645Z,74.80
2018-05-13T17:41:06.925Z,74.40
2018-05-13T17:43:35.122Z,74.50
2018-05-13T17:46:03.347Z,74.10
2018-05-13T17:48:31.584Z,74.60
2018-05-13T17:51:00.013Z,73.80
2018-05-13T17:53:28.242Z,75.40
2018-05-13T17:55:56.480Z,75.20
2018-05-13T17:58:24.713Z,74.80
2018-05-13T18:00:53.730Z,75.70
2018-05-13T18:03:22.903Z,74.80
2018-05-13T18:05:50.978Z,74.80
2018-05-13T18:08:19.200Z,74.60
2018-05-13T18:10:47.453Z,74.80
2018-05-13T18:13:15.686Z,74.40
2018-05-13T18:15:43.963Z,75.00
2018-05-13T18:18:12.206Z,76.10
2018-05-13T18:20:40.485Z,74.80
2018-05-13T18:23:09.110Z,74.80
2018-05-13T18:25:37.361Z,74.90
2018-05-13T18:28:05.597Z,75.30
2018-05-13T18:30:33.875Z,75.60
2018-05-13T18:33:02.138Z,75.40
2018-05-13T18:35:30.556Z,75.50
2018-05-13T18:37:58.782Z,75.50
2018-05-13T18:40:27.023Z,75.60
2018-05-13T18:42:56.012Z,75.80
2018-05-13T18:45:24.288Z,75.70
2018-05-13T18:47:52.513Z,76.30
2018-05-13T18:50:20.777Z,75.80
2018-05-13T18:52:49.792Z,77.00
2018-05-13T18:55:18.022Z,76.90
2018-05-13T18:57:47.011Z,76.50
2018-05-13T19:00:16.145Z,77.00
2018-05-13T19:02:44.387Z,76.90
2018-05-13T19:05:13.381Z,76.80
2018-05-13T19:07:41.593Z,76.80
2018-05-13T19:10:10.102Z,77.10
2018-05-13T19:12:38.318Z,77.00
2018-05-13T19:15:06.613Z,76.70
2018-05-13T19:17:34.880Z,77.20
2018-05-13T19:20:03.823Z,76.80
2018-05-13T19:22:32.056Z,77.20
2018-05-13T19:25:00.277Z,77.10
2018-05-13T19:27:29.271Z,77.30
2018-05-13T19:29:57.504Z,77.50
2018-05-13T19:32:25.875Z,77.60
2018-05-13T19:34:54.115Z,77.60
2018-05-13T19:37:23.141Z,77.50
2018-05-13T19:39:51.408Z,77.50
2018-05-13T19:42:19.651Z,77.70
2018-05-13T19:44:47.910Z,78.70
2018-05-13T19:47:16.229Z,77.80
2018-05-13T19:49:44.496Z,78.20
2018-05-13T19:52:13.534Z,78.80
2018-05-13T19:54:41.774Z,78.00
2018-05-13T19:57:10.026Z,78.60
2018-05-13T19:59:39.054Z,78.50
2018-05-13T20:02:07.292Z,78.40
2018-05-13T20:04:35.540Z,78.30
2018-05-13T20:07:03.752Z,78.20
2018-05-13T20:09:32.050Z,78.20
2018-05-13T20:12:00.228Z,78.40
2018-05-13T20:14:28.436Z,78.10
2018-05-13T20:16:56.678Z,79.00
2018-05-13T20:19:24.930Z,78.70
2018-05-13T20:21:53.920Z,79.30
2018-05-13T20:24:22.145Z,79.20
2018-05-13T20:26:50.489Z,79.20
2018-05-13T20:29:18.722Z,79.30
2018-05-13T20:31:46.941Z,79.60
2018-05-13T20:34:15.202Z,79.60
2018-05-13T20:36:43.470Z,79.80
2018-05-13T20:39:12.461Z,79.60
2018-05-13T20:41:40.744Z,79.60
2018-05-13T20:44:09.010Z,79.60
2018-05-13T20:46:38.009Z,80.00
2018-05-13T20:49:06.242Z,80.00
2018-05-13T20:51:34.460Z,80.50
2018-05-13T20:54:02.746Z,81.20
2018-05-13T20:56:31.011Z,81.30
2018-05-13T20:58:59.235Z,81.40
2018-05-13T21:01:27.479Z,82.00
2018-05-13T21:03:55.728Z,82.60
2018-05-13T21:06:24.726Z,82.30
2018-05-13T21:08:52.972Z,82.30
2018-05-13T21:11:21.218Z,82.80
2018-05-13T21:13:49.425Z,82.30
2018-05-13T21:16:18.447Z,83.20
2018-05-13T21:18:46.668Z,83.00
2018-05-13T21:21:15.018Z,83.20
2018-05-13T21:23:43.232Z,83.90
2018-05-13T21:26:11.459Z,83.60
2018-05-13T21:28:39.810Z,83.40
2018-05-13T21:31:08.033Z,83.70
2018-05-13T21:33:36.233Z,83.20
2018-05-13T21:36:04.463Z,82.70
2018-05-13T21:38:32.681Z,82.80
2018-05-13T21:41:00.944Z,83.30
2018-05-13T21:43:29.172Z,83.70
2018-05-13T21:45:57.415Z,83.50
2018-05-13T21:48:26.399Z,84.00
2018-05-13T21:50:54.641Z,83.90
2018-05-13T21:53:23.054Z,84.80
2018-05-13T21:55:51.318Z,84.40
2018-05-13T21:58:19.537Z,84.80
2018-05-13T22:00:48.535Z,85.30
2018-05-13T22:03:16.752Z,85.20
2018-05-13T22:05:44.986Z,85.30
2018-05-13T22:08:13.263Z,86.40
2018-05-13T22:10:41.507Z,87.60
2018-05-13T22:13:10.542Z,89.50
2018-05-13T22:15:38.767Z,89.50
2018-05-13T22:18:07.097Z,89.50
2018-05-13T22:20:35.300Z,90.30
2018-05-13T22:23:03.923Z,90.60
2018-05-13T22:25:32.892Z,90.90
2018-05-13T22:28:01.887Z,91.30
2018-05-13T22:30:30.103Z,91.30
2018-05-13T22:32:58.328Z,91.40
2018-05-13T22:35:26.563Z,91.60
2018-05-13T22:37:54.786Z,91.70
2018-05-13T22:40:23.006Z,91.80
2018-05-13T22:42:51.232Z,91.80
2018-05-13T22:45:19.465Z,91.90
2018-05-13T22:47:47.693Z,91.90
2018-05-13T22:50:16.687Z,91.90
2018-05-13T22:52:46.538Z,92.10
2018-05-13T22:55:14.906Z,92.00
2018-05-13T22:57:43.276Z,92.10
2018-05-13T23:00:11.704Z,91.90
2018-05-13T23:02:40.001Z,92.10
2018-05-13T23:05:08.191Z,91.90
2018-05-13T23:07:37.189Z,92.20
2018-05-13T23:10:05.631Z,92.20
2018-05-13T23:12:33.959Z,92.20
2018-05-13T23:15:02.217Z,92.20
2018-05-13T23:17:31.216Z,92.40
2018-05-13T23:20:00.189Z,92.30
2018-05-13T23:22:35.241Z,92.30
2018-05-13T23:25:04.256Z,92.20
2018-05-13T23:27:32.512Z,92.10
2018-05-13T23:30:00.687Z,92.10
2018-05-13T23:32:28.960Z,92.30
2018-05-13T23:34:58.116Z,92.10
2018-05-13T23:37:26.435Z,92.20
2018-05-13T23:39:54.713Z,92.40
2018-05-13T23:42:22.942Z,92.50
2018-05-13T23:44:51.140Z,92.20
2018-05-13T23:47:20.152Z,91.90
2018-05-13T23:49:48.360Z,91.80
2018-05-13T23:52:16.580Z,91.80
2018-05-13T23:54:45.567Z,91.90
2018-05-13T23:57:13.888Z,91.80
2018-05-13T23:59:42.113Z,92.00
